Observations for ST. NAZAIRE MONTOIR, France (LFRZ)

LFRZ 221300Z AUTO 29010KT CAVOK 09/02 Q1008 NOSIG   
LFRZ 221230Z AUTO 29009KT 260V320 CAVOK 08/03 Q1008 NOSIG   
LFRZ 221200Z AUTO 29011KT CAVOK 08/03 Q1009 NOSIG   
LFRZ 221130Z AUTO 29011KT CAVOK 08/03 Q1009 NOSIG   
LFRZ 221100Z AUTO 29008KT CAVOK 08/03 Q1009 NOSIG   
LFRZ 221030Z AUTO 29007KT 260V340 CAVOK 07/04 Q1009 NOSIG   
LFRZ 221000Z AUTO 29008KT CAVOK 06/03 Q1009 NOSIG   
LFRZ 220930Z AUTO 29007KT 270V330 CAVOK 06/04 Q1009 NOSIG   
LFRZ 220900Z AUTO 28008KT CAVOK 05/03 Q1009 NOSIG   
LFRZ 220830Z AUTO 28007KT CAVOK 05/03 Q1009 NOSIG   
LFRZ 220800Z AUTO 29007KT 260V320 CAVOK 05/03 Q1009 NOSIG   
LFRZ 220730Z AUTO 28006KT 260V320 CAVOK 06/04 Q1009 NOSIG   
LFRZ 220700Z AUTO 29005KT 250V340 CAVOK 06/03 Q1009 NOSIG   
LFRZ 220630Z AUTO 33011KT 300V360 9999 FEW041/// OVC150/// ///TCU 06/03 Q1009 BECMG FEW040 BKN100   
LFRZ 220600Z AUTO 28011KT 260V320 9999 SCT013/// BKN130/// BKN150/// ///CB 08/06 Q1008 BECMG FEW040 BKN100  
LFRZ 220530Z AUTO 23017KT 9999 FEW010 BKN014 BKN021 08/07 Q1008 BECMG 32010KT SCT025
LFRZ 220500Z AUTO 22013KT 9999 -RA SCT017/// BKN023/// BKN031/// ///TCU 08/07 Q1009 TEMPO 2500 RA BECMG 32010KT SCT025  
LFRZ 220430Z AUTO 24010KT 9999 -RA FEW016/// BKN033/// BKN039/// ///CB 08/06 Q1010 TEMPO 2500 RA BECMG 32010KT SCT025   
LFRZ 220400Z AUTO 24013KT 9999 -RA BKN013/// OVC018/// ///CB 08/07 Q1010 TEMPO 22015G25KT 2500 RA BKN007
LFRZ 220330Z AUTO 21015KT 9999 -RA FEW012/// BKN018/// OVC025/// ///CB 08/07 Q1011 TEMPO 22015G25KT 2500 RA BKN007  
LFRZ 220300Z AUTO 21017KT 9999 -RADZ BKN016/// BKN029/// BKN039/// ///TCU 08/07 Q1012 TEMPO 22015G25KT 2500 RA BKN007   
LFRZ 220230Z AUTO 21018KT 9999 -RA FEW017 BKN027 BKN041 08/06 Q1013 TEMPO 2500 RA BKN007
LFRZ 220200Z AUTO 22020KT 9999 OVC017 08/06 Q1013 BECMG 21010KT 4500 -RA
LFRZ 220130Z AUTO 18009KT 9999 BKN020 OVC025 06/04 Q1014 BECMG 4500 -RA 
LFRZ 220100Z AUTO 17010KT 9999 BKN024 BKN050 OVC062 05/04 Q1015 BECMG 4500 -RA  
LFRZ 220030Z AUTO 17011KT 9999 BKN027 BKN048 OVC060 05/04 Q1016 BECMG 4500 -RA  
LFRZ 220000Z AUTO 16008KT 7000 NSC 04/02 Q1017 BECMG 4500 -RA   
LFRZ 212330Z AUTO 19008KT 150V220 9000 FEW022 BKN060 BKN140 05/02 Q1018 BECMG 4000 -RA BKN013 BKN030
LFRZ 212300Z AUTO 21009KT 9999 FEW021 SCT058 BKN150 05/03 Q1018 NOSIG   
LFRZ 212230Z AUTO 22005KT 8000 SCT020 SCT140 OVC170 03/01 Q1019 NOSIG   
LFRZ 212200Z AUTO VRB03KT 8000 FEW020 BKN200 BKN240 02/01 Q1019 NOSIG   
LFRZ 212130Z AUTO 19004KT 8000 NSC 02/01 Q1020 NOSIG
LFRZ 212100Z AUTO 17004KT 8000 NSC 02/M00 Q1020 NOSIG   
LFRZ 212030Z AUTO 19004KT 9000 NSC 02/M00 Q1020 NOSIG   
LFRZ 212000Z AUTO 21003KT 8000 NSC 02/01 Q1021 NOSIG
LFRZ 211930Z AUTO VRB03KT 8000 NSC 02/00 Q1021 NOSIG
LFRZ 211900Z AUTO 24003KT 8000 NSC 02/M00 Q1022 NOSIG   
LFRZ 211830Z AUTO 24004KT 8000 SCT025 BKN220 BKN240 02/M01 Q1022 NOSIG  
LFRZ 211800Z AUTO 27004KT 9999 BKN026 03/M00 Q1022 NOSIG
LFRZ 211730Z AUTO 25003KT CAVOK 03/M00 Q1022 NOSIG  
LFRZ 211700Z AUTO 26004KT CAVOK 03/M01 Q1022 NOSIG  
LFRZ 211630Z AUTO 25004KT CAVOK 05/M00 Q1023 NOSIG  
LFRZ 211600Z AUTO 28004KT CAVOK 05/00 Q1023 NOSIG   
LFRZ 211530Z AUTO 28005KT CAVOK 06/00 Q1023 NOSIG   
LFRZ 211500Z AUTO 33003KT 250V030 9999 FEW025 06/M00 Q1023 NOSIG
LFRZ 211430Z AUTO 34004KT 280V030 CAVOK 06/00 Q1023 NOSIG   
LFRZ 211400Z AUTO 03004KT 330V100 9999 FEW027 06/00 Q1023 NOSIG 
LFRZ 211330Z AUTO 34005KT 290V010 9999 FEW026 06/00 Q1024 NOSIG 
LFRZ 211300Z AUTO 35005KT 310V040 9999 SCT025 05/00 Q1024 NOSIG 
LFRZ 211230Z AUTO 01005KT 340V040 9999 FEW023 05/01 Q1024 NOSIG